createdAt,value
2023-04-07T00:22:12.124Z,10.68
2023-04-07T00:27:46.258Z,9.80
2023-04-07T00:34:23.892Z,8.70
2023-04-07T00:39:00.939Z,10.15
2023-04-07T00:44:25.121Z,10.57
2023-04-07T01:01:59.653Z,9.57
2023-04-07T01:14:31.904Z,9.65
2023-04-07T01:26:58.194Z,8.88
2023-04-07T01:32:45.038Z,8.43
2023-04-07T01:38:32.203Z,9.60
2023-04-07T01:57:14.718Z,9.95
2023-04-07T02:22:14.965Z,9.45
2023-04-07T02:51:36.140Z,9.50
2023-04-07T03:03:18.195Z,9.55
2023-04-07T03:09:39.297Z,10.00
2023-04-07T03:15:50.513Z,9.80
2023-04-07T03:21:46.585Z,10.10
2023-04-07T03:33:58.702Z,14.80
2023-04-07T03:39:51.616Z,12.03
2023-04-07T03:45:15.870Z,11.38
2023-04-07T03:57:11.435Z,13.00
2023-04-07T04:09:09.545Z,11.95
2023-04-07T04:14:51.286Z,17.20
2023-04-07T04:43:56.234Z,22.13
2023-04-07T05:02:19.253Z,19.85
2023-04-07T05:14:34.390Z,21.50
2023-04-07T05:32:48.000Z,19.85
2023-04-07T05:55:50.113Z,7.63
2023-04-07T06:12:59.960Z,7.15
2023-04-07T06:18:15.582Z,7.45
2023-04-07T06:23:20.584Z,7.40
2023-04-07T06:28:38.264Z,7.45
2023-04-07T06:33:46.630Z,7.47
2023-04-07T06:39:00.321Z,8.30
2023-04-07T06:44:09.594Z,6.93
2023-04-07T06:49:27.917Z,7.78
2023-04-07T07:00:19.603Z,7.88
2023-04-07T07:05:36.766Z,7.18
2023-04-07T07:10:41.658Z,6.65
2023-04-07T07:15:46.373Z,6.47
2023-04-07T07:20:57.033Z,7.07
2023-04-07T07:26:07.234Z,5.53
2023-04-07T07:31:49.386Z,6.28
2023-04-07T07:42:15.632Z,6.40
2023-04-07T07:47:44.921Z,6.38
2023-04-07T07:52:49.797Z,5.97
2023-04-07T07:58:09.747Z,6.00
2023-04-07T08:03:12.342Z,7.03
2023-04-07T08:08:22.401Z,6.03
2023-04-07T08:13:29.720Z,5.57
2023-04-07T08:18:32.967Z,6.15
2023-04-07T08:23:40.616Z,5.88
2023-04-07T08:28:45.927Z,6.18
2023-04-07T08:34:11.883Z,5.80
2023-04-07T08:39:34.560Z,5.95
2023-04-07T08:45:24.737Z,6.18
2023-04-07T08:50:54.464Z,5.68
2023-04-07T09:01:25.914Z,6.50
2023-04-07T09:06:48.050Z,6.65
2023-04-07T09:22:57.078Z,6.03
2023-04-07T09:28:10.829Z,6.50
2023-04-07T09:33:38.672Z,5.82
2023-04-07T09:38:56.694Z,5.23
2023-04-07T09:43:59.646Z,5.85
2023-04-07T09:49:17.777Z,6.68
2023-04-07T09:54:54.432Z,5.90
2023-04-07T10:00:01.786Z,6.65
2023-04-07T10:05:21.989Z,7.07
2023-04-07T10:10:48.311Z,6.22
2023-04-07T10:16:05.982Z,5.82
2023-04-07T10:21:23.870Z,5.32
2023-04-07T10:26:33.496Z,5.75
2023-04-07T10:38:25.143Z,6.22
2023-04-07T10:43:54.205Z,6.68
2023-04-07T10:54:58.389Z,6.53
2023-04-07T11:00:14.622Z,6.97
2023-04-07T11:05:27.340Z,5.97
2023-04-07T11:10:29.842Z,6.30
2023-04-07T11:16:22.870Z,6.68
2023-04-07T11:28:30.931Z,5.82
2023-04-07T11:33:36.786Z,7.00
2023-04-07T11:38:40.297Z,7.15
2023-04-07T11:43:48.182Z,5.80
2023-04-07T11:48:54.993Z,7.13
2023-04-07T11:54:07.501Z,7.18
2023-04-07T11:59:28.211Z,8.63
2023-04-07T12:04:48.918Z,9.10
2023-04-07T12:09:58.684Z,9.55
2023-04-07T12:15:11.757Z,7.63
2023-04-07T12:20:37.624Z,10.03
2023-04-07T12:25:59.071Z,8.52
2023-04-07T12:31:01.582Z,8.57
2023-04-07T12:36:47.117Z,13.75
2023-04-07T12:42:18.464Z,10.27
2023-04-07T12:47:41.699Z,14.65
2023-04-07T12:52:48.585Z,21.15
2023-04-07T12:57:54.380Z,15.85
2023-04-07T13:02:57.119Z,12.15
2023-04-07T13:08:13.785Z,13.43
2023-04-07T13:13:21.969Z,22.70
2023-04-07T13:18:24.460Z,72.05
2023-04-07T13:23:39.380Z,18.33
2023-04-07T13:28:53.496Z,10.85
2023-04-07T13:34:01.312Z,13.85
2023-04-07T13:39:05.638Z,23.85
2023-04-07T13:44:10.430Z,10.68
2023-04-07T13:49:26.681Z,12.73
2023-04-07T13:54:55.631Z,11.88
2023-04-07T14:00:06.562Z,10.40
2023-04-07T14:05:17.855Z,10.93
2023-04-07T14:10:36.047Z,10.65
2023-04-07T14:15:46.089Z,11.13
2023-04-07T14:20:48.514Z,8.40
2023-04-07T14:25:55.075Z,9.50
2023-04-07T14:31:09.797Z,10.60
2023-04-07T14:36:25.057Z,10.35
2023-04-07T14:41:30.287Z,10.10
2023-04-07T14:46:41.018Z,10.07
2023-04-07T14:51:50.086Z,9.82
2023-04-07T14:56:57.803Z,12.13
2023-04-07T15:02:02.176Z,13.70
2023-04-07T15:07:05.600Z,29.05
2023-04-07T15:12:14.857Z,12.57
2023-04-07T15:17:42.481Z,16.35
2023-04-07T15:22:49.109Z,13.90
2023-04-07T15:27:55.564Z,18.83
2023-04-07T15:33:20.269Z,23.42
2023-04-07T15:38:25.004Z,10.90
2023-04-07T15:43:33.284Z,16.00
2023-04-07T15:48:55.625Z,18.17
2023-04-07T15:59:23.229Z,11.20
2023-04-07T16:04:25.659Z,12.98
2023-04-07T16:09:28.851Z,10.10
2023-04-07T16:14:31.582Z,10.73
2023-04-07T16:19:33.997Z,11.15
2023-04-07T16:24:36.347Z,13.45
2023-04-07T16:29:38.626Z,11.88
2023-04-07T16:34:41.048Z,17.30
2023-04-07T16:39:43.357Z,14.52
2023-04-07T16:44:45.814Z,14.73
2023-04-07T16:49:47.996Z,13.73
2023-04-07T16:54:50.708Z,21.20
2023-04-07T16:59:53.148Z,18.38
2023-04-07T17:04:55.378Z,15.20
2023-04-07T17:09:58.999Z,16.95
2023-04-07T17:15:01.962Z,23.15
2023-04-07T17:20:05.336Z,64.13
2023-04-07T17:25:08.392Z,69.90
2023-04-07T17:30:11.082Z,56.25
2023-04-07T17:35:13.409Z,146.02
2023-04-07T17:40:16.017Z,266.08
2023-04-07T17:45:18.426Z,75.95
2023-04-07T17:50:20.992Z,66.43
2023-04-07T17:55:23.599Z,55.10
2023-04-07T18:00:26.537Z,82.47
2023-04-07T18:05:31.319Z,86.70
2023-04-07T18:10:35.827Z,84.85
2023-04-07T18:15:38.909Z,22.10
2023-04-07T18:20:41.850Z,40.08
2023-04-07T18:25:44.241Z,22.70
2023-04-07T18:30:47.246Z,20.55
2023-04-07T18:35:49.784Z,19.95
2023-04-07T18:40:53.433Z,39.53
2023-04-07T18:45:55.820Z,18.35
2023-04-07T18:50:58.179Z,19.42
2023-04-07T18:56:00.668Z,18.98
2023-04-07T19:01:02.981Z,21.83
2023-04-07T19:06:06.472Z,19.45
2023-04-07T19:11:09.483Z,19.35
2023-04-07T19:16:11.835Z,19.67
2023-04-07T19:21:14.359Z,17.55
2023-04-07T19:26:16.962Z,16.45
2023-04-07T19:31:19.330Z,26.88
2023-04-07T19:36:21.638Z,55.28
2023-04-07T19:41:23.988Z,54.28
2023-04-07T19:46:26.352Z,27.58
2023-04-07T19:51:28.964Z,36.95
2023-04-07T19:56:31.279Z,44.03
2023-04-07T20:01:33.919Z,24.67
2023-04-07T20:06:39.314Z,20.50
2023-04-07T20:11:41.601Z,22.52
2023-04-07T20:16:44.367Z,40.65
2023-04-07T20:21:50.141Z,28.27
2023-04-07T20:26:52.560Z,20.23
2023-04-07T20:31:55.046Z,17.67
2023-04-07T20:36:58.940Z,17.13
2023-04-07T20:42:02.194Z,17.85
2023-04-07T20:47:11.819Z,17.77
2023-04-07T20:52:14.724Z,17.65
2023-04-07T20:57:17.228Z,18.23
2023-04-07T21:02:20.663Z,20.05
2023-04-07T21:07:23.144Z,20.20
2023-04-07T21:12:25.455Z,17.00
2023-04-07T21:17:27.887Z,17.33
2023-04-07T21:22:31.343Z,17.52
2023-04-07T21:27:41.568Z,18.45
2023-04-07T21:32:49.468Z,17.65
2023-04-07T21:37:52.042Z,19.02
2023-04-07T21:42:54.594Z,19.02
2023-04-07T21:47:57.379Z,18.15
2023-04-07T21:53:03.467Z,17.80
2023-04-07T21:58:06.020Z,19.33
2023-04-07T22:03:09.307Z,19.58
2023-04-07T22:08:13.436Z,20.23
2023-04-07T22:13:26.984Z,21.73
2023-04-07T22:18:30.254Z,21.52
2023-04-07T22:23:35.280Z,21.98
2023-04-07T22:28:37.757Z,19.98
2023-04-07T22:33:40.529Z,22.38
2023-04-07T22:38:45.957Z,21.67
2023-04-07T22:43:48.614Z,21.67
2023-04-07T22:48:51.564Z,23.38
2023-04-07T22:53:56.997Z,23.73
2023-04-07T22:59:05.968Z,21.80
2023-04-07T23:04:08.437Z,22.00
2023-04-07T23:09:20.865Z,22.00
2023-04-07T23:14:23.495Z,21.92
2023-04-07T23:19:28.465Z,22.45
2023-04-07T23:24:31.384Z,23.33
2023-04-07T23:29:34.377Z,21.77
2023-04-07T23:34:36.837Z,20.63
2023-04-07T23:39:39.482Z,21.30
2023-04-07T23:44:41.991Z,22.35
2023-04-07T23:49:46.967Z,21.17
2023-04-07T23:54:51.999Z,23.05
2023-04-07T23:59:55.302Z,20.83
